Etusivu
METAR-TAF:

METAR-TAF

Lentoasemat :

Giddings-Lee County Airport

Giddings, Texas, Yhdysvallat

Leveyspiiri: 30-10-09N, Pituuspiiri: 096-58-48W, korkeus merenpinnasta: 148 m

Tämänhetkinen sää

Tämä raportti tehtiin 19 minuuttia sitten, kello 21.15 UTC
Tuuli 4 kn lounaasta
Lämpötila 35°C
Kosteus 44%
Ilmanpaine 1012 hPa
Näkyvyys: 16.1 km
selkeää

METAR: KGYB 182115Z AUTO 23004KT 10SM CLR 35/21 A2989 RMK AO2 T03450212

Aika: 16:34 (21:34 UTC)


TAF: puuttuu

Säähavainnot ja -ennusteet yli 4000 lentoasemalta (METAR- ja TAF-raportit).

Käytössä olevat sääasemat on merkitty karttaan keltaisilla ja punaisilla pisteillä.

Aseta hiiri pisteen päälle nähdäksesi sääaseman nimen.

Klikkaa sitten nähdäksesi säähavainnot ja -ennusteet.

Kartan vaihtaminen: klikkaa mustalla rastilla varustettuja vihreitä pisteitä, niin voit zoomata sisään; viivalla varustettua vihreää pistettä, niin voit zoomata ulos tai vihreitä nuolia, niin pääset viereisille kartoille.


METAR-TAF: